Time;durP1;ratioP1;P1;durP2;ratioP2;P2;SDS_P1;SDS_P2;PMS_P1;PMS_P2;Temp;Humidity;BMP_temperature;BMP_pressure;BME280_temperature;BME280_humidity;BME280_pressure;Samples;Min_cycle;Max_cycle;Signal;HPM_P1;HPM_P2
2023/12/24 00:00:55;;;;;;;9.18;1.23;;;8.90;99.90;;;;;;4985843;28;20052;-73
2023/12/24 00:03:20;;;;;;;3.13;1.55;;;8.90;99.90;;;;;;5000216;28;20048;-73
2023/12/24 00:05:46;;;;;;;6.97;1.88;;;8.90;99.90;;;;;;5000330;28;20124;-73
2023/12/24 00:08:11;;;;;;;5.30;1.73;;;8.90;99.90;;;;;;4998707;28;20529;-76
2023/12/24 00:10:37;;;;;;;5.38;2.03;;;8.90;99.90;;;;;;4983116;28;20042;-73
2023/12/24 00:13:02;;;;;;;4.25;1.00;;;8.90;99.90;;;;;;4998542;28;20136;-73
2023/12/24 00:15:28;;;;;;;9.07;1.98;;;8.90;99.90;;;;;;4998798;28;20053;-73
2023/12/24 00:17:53;;;;;;;6.28;1.65;;;8.90;99.90;;;;;;4981972;28;20496;-73
2023/12/24 00:20:19;;;;;;;11.68;2.88;;;8.90;99.90;;;;;;4981375;28;20446;-73
2023/12/24 00:23:04;;;;;;;6.82;1.60;;;8.90;99.90;;;;;;5033950;28;20637;-73
2023/12/24 00:25:29;;;;;;;5.10;1.92;;;8.90;99.90;;;;;;4998881;28;20050;-73
2023/12/24 00:27:55;;;;;;;5.15;1.63;;;8.90;99.90;;;;;;4995038;28;20069;-73
2023/12/24 00:30:21;;;;;;;2.83;1.23;;;8.90;99.90;;;;;;4988870;28;20504;-73
2023/12/24 00:32:46;;;;;;;5.82;1.70;;;8.90;99.90;;;;;;4992023;28;20045;-73
2023/12/24 00:35:12;;;;;;;8.77;1.38;;;8.90;99.90;;;;;;5032385;28;20061;-73
2023/12/24 00:37:37;;;;;;;2.08;1.05;;;8.90;99.90;;;;;;4982779;28;20033;-73
2023/12/24 00:40:03;;;;;;;5.80;1.52;;;9.00;99.90;;;;;;5019820;28;20082;-73
2023/12/24 00:42:29;;;;;;;5.43;1.38;;;8.90;99.90;;;;;;4981145;28;20481;-74
2023/12/24 00:44:54;;;;;;;7.68;1.48;;;9.00;99.90;;;;;;4979522;28;20104;-73
2023/12/24 00:47:20;;;;;;;6.32;1.98;;;8.90;99.90;;;;;;4980727;28;20129;-73
2023/12/24 00:49:45;;;;;;;7.45;2.08;;;8.90;99.90;;;;;;4997103;28;20053;-73
2023/12/24 00:52:11;;;;;;;3.10;1.55;;;8.90;99.90;;;;;;5012008;28;20505;-73
2023/12/24 00:54:37;;;;;;;1.98;1.35;;;9.00;99.90;;;;;;4997388;28;20157;-73
2023/12/24 00:57:02;;;;;;;8.50;1.42;;;9.00;99.90;;;;;;5000867;28;20046;-73
2023/12/24 00:59:28;;;;;;;3.78;2.03;;;8.90;99.90;;;;;;4987286;28;20125;-73
2023/12/24 01:01:54;;;;;;;10.77;1.20;;;9.00;99.90;;;;;;5032856;28;20078;-73
2023/12/24 01:04:19;;;;;;;3.28;1.55;;;9.00;99.90;;;;;;4994591;28;20049;-73
2023/12/24 01:06:45;;;;;;;15.10;1.52;;;8.90;99.90;;;;;;4995173;28;20521;-73
2023/12/24 01:09:10;;;;;;;5.95;1.45;;;8.90;99.90;;;;;;4987893;28;20052;-73
2023/12/24 01:11:36;;;;;;;4.35;2.22;;;8.90;99.90;;;;;;5032526;28;20188;-73
2023/12/24 01:14:01;;;;;;;6.97;1.67;;;8.90;99.90;;;;;;5020588;28;20054;-73
2023/12/24 01:16:27;;;;;;;9.38;1.98;;;8.90;99.90;;;;;;4984002;28;20129;-73
2023/12/24 01:18:52;;;;;;;5.55;1.52;;;8.90;99.90;;;;;;5000730;28;20034;-73
2023/12/24 01:21:18;;;;;;;8.40;1.75;;;8.90;99.90;;;;;;4996476;28;20129;-74
2023/12/24 01:23:44;;;;;;;4.18;1.50;;;8.90;99.90;;;;;;4965030;28;20046;-73
2023/12/24 01:26:09;;;;;;;4.00;1.20;;;9.00;99.90;;;;;;4957402;28;20141;-73
2023/12/24 01:28:35;;;;;;;5.47;1.13;;;8.90;99.90;;;;;;5015930;28;20054;-73
2023/12/24 01:31:00;;;;;;;8.45;1.92;;;9.00;99.90;;;;;;5016391;28;20421;-74
2023/12/24 01:33:26;;;;;;;3.55;1.63;;;8.90;99.90;;;;;;5019763;28;20038;-74
2023/12/24 01:35:51;;;;;;;2.30;1.33;;;8.90;99.90;;;;;;5016630;28;20050;-74
2023/12/24 01:38:17;;;;;;;8.13;1.17;;;9.00;99.90;;;;;;5018091;28;20104;-74
2023/12/24 01:40:46;;;;;;;2.05;1.48;;;8.90;99.90;;;;;;4988076;28;20073;-74
2023/12/24 01:43:12;;;;;;;8.32;1.50;;;9.00;99.90;;;;;;4996936;28;20046;-73
2023/12/24 01:45:37;;;;;;;4.28;1.10;;;9.00;99.90;;;;;;4984008;28;20509;-73
2023/12/24 01:48:03;;;;;;;1.67;0.93;;;9.00;99.90;;;;;;4996709;28;20042;-73
2023/12/24 01:50:29;;;;;;;4.30;0.75;;;9.00;99.90;;;;;;5018053;28;20046;-74
2023/12/24 01:52:55;;;;;;;5.50;1.63;;;9.00;99.90;;;;;;4983340;28;20053;-74
2023/12/24 01:55:21;;;;;;;3.50;1.15;;;9.00;99.90;;;;;;4985172;28;20070;-73
2023/12/24 01:57:47;;;;;;;2.72;1.20;;;9.00;99.90;;;;;;4993710;28;20042;-73
2023/12/24 02:00:13;;;;;;;7.88;1.92;;;9.00;99.90;;;;;;5001520;28;20140;-73
2023/12/24 02:02:39;;;;;;;3.42;1.75;;;9.00;99.90;;;;;;5035646;23;20031;-74
2023/12/24 02:05:06;;;;;;;3.03;1.30;;;9.00;99.90;;;;;;4995090;28;20111;-73
2023/12/24 02:07:34;;;;;;;4.22;1.02;;;9.00;99.90;;;;;;4983026;28;20102;-74
2023/12/24 02:10:01;;;;;;;4.93;1.60;;;9.00;99.90;;;;;;4990017;28;20129;-74
2023/12/24 02:12:26;;;;;;;2.38;1.13;;;9.00;99.90;;;;;;4994346;28;20121;-74
2023/12/24 02:14:52;;;;;;;1.95;0.82;;;9.00;99.90;;;;;;4989625;28;20150;-73
2023/12/24 02:17:18;;;;;;;7.03;1.48;;;9.00;99.90;;;;;;4988026;28;20038;-73
2023/12/24 02:19:44;;;;;;;3.25;1.17;;;9.00;99.90;;;;;;5002759;28;20402;-73
2023/12/24 02:22:10;;;;;;;5.38;1.77;;;9.10;99.90;;;;;;5003900;28;20133;-73
2023/12/24 02:24:35;;;;;;;5.30;1.50;;;9.10;99.90;;;;;;4994724;28;20034;-74
2023/12/24 02:27:25;;;;;;;3.20;1.30;;;9.00;99.90;;;;;;4983612;28;20046;-73
2023/12/24 02:29:56;;;;;;;3.97;1.13;;;9.10;99.90;;;;;;4990629;28;20055;-74
2023/12/24 02:32:24;;;;;;;2.72;1.17;;;9.10;99.90;;;;;;4995562;28;20129;-74
2023/12/24 02:34:53;;;;;;;5.25;1.00;;;9.00;99.90;;;;;;4993632;28;20069;-74
2023/12/24 02:37:19;;;;;;;5.95;0.90;;;9.10;99.90;;;;;;4987440;28;20049;-73
2023/12/24 02:39:45;;;;;;;4.72;1.10;;;9.00;99.90;;;;;;4985375;28;20392;-74
2023/12/24 02:42:11;;;;;;;8.43;1.88;;;9.10;99.90;;;;;;5035036;28;20527;-74
2023/12/24 02:44:38;;;;;;;6.53;1.60;;;9.10;99.90;;;;;;5002213;28;20121;-73
2023/12/24 02:47:04;;;;;;;6.35;1.85;;;9.10;99.90;;;;;;4989420;28;20050;-74
2023/12/24 02:49:30;;;;;;;3.88;0.95;;;9.10;99.90;;;;;;4983443;28;20053;-74
2023/12/24 02:51:55;;;;;;;5.32;1.58;;;9.10;99.90;;;;;;4983959;28;20038;-74
2023/12/24 02:54:21;;;;;;;5.30;2.22;;;9.10;99.90;;;;;;4991798;28;20069;-73
2023/12/24 02:56:46;;;;;;;3.65;1.05;;;9.10;99.90;;;;;;5003565;28;20120;-74
2023/12/24 02:59:12;;;;;;;1.95;1.13;;;9.10;99.90;;;;;;5018172;28;20050;-73
2023/12/24 03:01:37;;;;;;;1.92;0.90;;;9.10;99.90;;;;;;4984021;28;20366;-73
2023/12/24 03:04:04;;;;;;;6.50;1.08;;;9.20;99.90;;;;;;4987347;28;20081;-74
2023/12/24 03:06:29;;;;;;;4.63;0.73;;;9.10;99.90;;;;;;4992874;28;20523;-74
2023/12/24 03:08:55;;;;;;;1.92;0.90;;;9.10;99.90;;;;;;4997320;28;20074;-74
2023/12/24 03:11:22;;;;;;;3.83;0.85;;;9.20;99.90;;;;;;5000156;28;20129;-73
2023/12/24 03:13:47;;;;;;;2.83;1.25;;;9.20;99.90;;;;;;4981915;28;20517;-74
2023/12/24 03:16:13;;;;;;;1.88;0.65;;;9.20;99.90;;;;;;4982583;28;20137;-73
2023/12/24 03:18:39;;;;;;;1.73;1.10;;;9.20;99.90;;;;;;4991471;28;20670;-74
2023/12/24 03:21:04;;;;;;;3.40;0.50;;;9.20;99.90;;;;;;4994890;28;20072;-74
2023/12/24 03:23:30;;;;;;;1.90;0.90;;;9.20;99.90;;;;;;4999474;28;20069;-74
2023/12/24 03:25:55;;;;;;;2.10;0.55;;;9.20;99.90;;;;;;4965243;28;20097;-74
2023/12/24 03:28:21;;;;;;;3.08;0.82;;;9.20;99.90;;;;;;4982435;28;20439;-73
2023/12/24 03:30:46;;;;;;;3.70;1.30;;;9.20;99.90;;;;;;4966500;28;20074;-73
2023/12/24 03:33:12;;;;;;;2.33;1.08;;;9.20;99.90;;;;;;4988006;28;20101;-74
2023/12/24 03:35:37;;;;;;;1.35;0.90;;;9.20;99.90;;;;;;4981467;28;20459;-73
2023/12/24 03:38:04;;;;;;;1.60;1.00;;;9.20;99.90;;;;;;4998632;28;20049;-74
2023/12/24 03:40:29;;;;;;;3.20;1.02;;;9.30;99.90;;;;;;5001955;28;20056;-74
2023/12/24 03:42:55;;;;;;;1.48;0.70;;;9.30;99.90;;;;;;5000483;28;20043;-73
2023/12/24 03:45:21;;;;;;;1.10;0.98;;;9.30;99.90;;;;;;4980958;28;20057;-73
2023/12/24 03:47:46;;;;;;;2.63;1.10;;;9.30;99.90;;;;;;4981568;28;20049;-74
2023/12/24 03:50:12;;;;;;;3.20;0.80;;;9.30;99.90;;;;;;4997160;28;20504;-74
2023/12/24 03:52:38;;;;;;;5.15;1.02;;;9.30;99.90;;;;;;5027614;28;20040;-73
2023/12/24 03:55:03;;;;;;;1.33;0.93;;;9.30;99.90;;;;;;4981015;28;20045;-74
2023/12/24 03:57:29;;;;;;;6.35;1.35;;;9.30;99.90;;;;;;4981159;28;20447;-74
2023/12/24 03:59:55;;;;;;;3.15;1.27;;;9.30;99.90;;;;;;4981447;28;20073;-74
2023/12/24 04:02:24;;;;;;;1.98;0.70;;;9.30;99.90;;;;;;4983799;28;20046;-74
2023/12/24 04:04:50;;;;;;;3.35;1.25;;;9.30;99.90;;;;;;4980599;28;20078;-74
2023/12/24 04:07:16;;;;;;;7.35;1.10;;;9.30;99.90;;;;;;4981697;28;20089;-74
2023/12/24 04:09:42;;;;;;;6.50;1.42;;;9.40;99.90;;;;;;4986013;28;20046;-74
2023/12/24 04:12:08;;;;;;;3.80;1.08;;;9.30;99.90;;;;;;4982693;28;20046;-74
2023/12/24 04:14:38;;;;;;;6.32;1.20;;;9.40;99.90;;;;;;4997525;28;20125;-73
2023/12/24 04:17:04;;;;;;;2.78;1.55;;;9.40;99.90;;;;;;5001461;28;20097;-74
2023/12/24 04:19:30;;;;;;;9.27;1.23;;;9.40;99.90;;;;;;4999722;28;20041;-73
2023/12/24 04:21:56;;;;;;;7.40;1.20;;;9.40;99.90;;;;;;4983389;28;20498;-74
2023/12/24 04:24:21;;;;;;;6.82;1.40;;;9.40;99.90;;;;;;4999200;28;20061;-73
2023/12/24 04:26:47;;;;;;;4.93;1.67;;;9.40;99.90;;;;;;4991410;28;20042;-74
2023/12/24 04:29:13;;;;;;;13.35;2.20;;;9.40;99.90;;;;;;4988964;28;20456;-74
2023/12/24 04:31:39;;;;;;;7.10;1.80;;;9.40;99.90;;;;;;5001110;28;20049;-73
2023/12/24 04:34:07;;;;;;;3.45;1.45;;;9.40;99.90;;;;;;4985181;28;20100;-74
2023/12/24 04:36:36;;;;;;;5.40;1.35;;;9.40;99.90;;;;;;4980587;28;20396;-75
2023/12/24 04:39:02;;;;;;;8.65;1.75;;;9.50;99.90;;;;;;4980307;28;20057;-74
2023/12/24 04:41:28;;;;;;;7.45;2.45;;;9.50;99.90;;;;;;4972135;28;20049;-73
2023/12/24 04:43:54;;;;;;;3.15;1.30;;;9.50;99.90;;;;;;4984027;28;20053;-73
2023/12/24 04:46:20;;;;;;;6.60;1.40;;;9.50;99.90;;;;;;4981889;28;20766;-74
2023/12/24 04:48:45;;;;;;;4.10;2.28;;;9.50;99.90;;;;;;4982404;28;20085;-74
2023/12/24 04:51:11;;;;;;;6.18;1.83;;;9.50;99.90;;;;;;4982241;28;20121;-73
2023/12/24 04:53:37;;;;;;;4.40;2.20;;;9.50;99.90;;;;;;4988352;28;20069;-75
2023/12/24 04:56:02;;;;;;;10.80;2.05;;;9.50;99.90;;;;;;4995859;28;20046;-73
2023/12/24 04:58:28;;;;;;;4.15;1.50;;;9.50;99.90;;;;;;5000037;28;20120;-74
2023/12/24 05:00:54;;;;;;;2.10;1.27;;;9.50;99.90;;;;;;5003812;28;20140;-73
2023/12/24 05:03:19;;;;;;;8.63;2.05;;;9.50;99.90;;;;;;4991934;28;20101;-73
2023/12/24 05:05:45;;;;;;;15.57;1.92;;;9.50;99.90;;;;;;4998300;28;20088;-73
2023/12/24 05:08:11;;;;;;;7.72;2.17;;;9.60;99.90;;;;;;5000957;28;20042;-73
2023/12/24 05:10:36;;;;;;;5.53;1.58;;;9.60;99.90;;;;;;4985879;28;20043;-73
2023/12/24 05:13:02;;;;;;;2.92;1.38;;;9.60;99.90;;;;;;4983023;28;20137;-74
2023/12/24 05:15:27;;;;;;;3.97;2.17;;;9.60;99.90;;;;;;4991549;28;20042;-73
2023/12/24 05:17:53;;;;;;;2.95;1.60;;;9.60;99.90;;;;;;5036618;28;20053;-73
2023/12/24 05:20:18;;;;;;;4.97;1.80;;;9.60;99.90;;;;;;5035209;28;20088;-74
2023/12/24 05:22:45;;;;;;;2.65;1.35;;;9.60;99.90;;;;;;4994797;28;20125;-73
2023/12/24 05:25:11;;;;;;;5.70;2.17;;;9.70;99.90;;;;;;4985116;28;20049;-73
2023/12/24 05:27:38;;;;;;;3.17;1.45;;;9.70;99.90;;;;;;4990004;28;20030;-73
2023/12/24 05:30:07;;;;;;;4.53;1.23;;;9.60;99.90;;;;;;4998291;28;20050;-73
2023/12/24 05:32:33;;;;;;;5.63;2.05;;;9.70;99.90;;;;;;4992179;28;20104;-73
2023/12/24 05:34:59;;;;;;;8.73;2.65;;;9.60;99.90;;;;;;5002780;28;20053;-73
2023/12/24 05:37:24;;;;;;;5.65;1.98;;;9.70;99.90;;;;;;4986132;28;20050;-74
2023/12/24 05:39:50;;;;;;;2.22;1.10;;;9.70;99.90;;;;;;4983762;28;20043;-74
2023/12/24 05:42:15;;;;;;;9.10;1.13;;;9.70;99.90;;;;;;4985075;28;20031;-73
2023/12/24 05:44:41;;;;;;;8.00;2.50;;;9.70;99.90;;;;;;4984416;28;20615;-74
2023/12/24 05:47:07;;;;;;;6.40;1.52;;;9.70;99.90;;;;;;4996438;28;20050;-74
2023/12/24 05:49:33;;;;;;;7.00;1.05;;;9.80;99.90;;;;;;4986595;28;20046;-74
2023/12/24 05:51:59;;;;;;;4.55;1.45;;;9.80;99.90;;;;;;4995970;28;20590;-74
2023/12/24 05:54:24;;;;;;;4.20;1.42;;;9.80;99.90;;;;;;4981439;28;20046;-73
2023/12/24 05:56:50;;;;;;;5.28;1.10;;;9.80;99.90;;;;;;4991497;28;20049;-74
2023/12/24 05:59:15;;;;;;;3.67;0.98;;;9.80;99.90;;;;;;5003975;28;20133;-73
2023/12/24 06:01:42;;;;;;;5.72;1.10;;;9.80;99.90;;;;;;5034791;28;20100;-74
2023/12/24 06:04:08;;;;;;;5.85;1.25;;;9.80;99.90;;;;;;4998562;28;20053;-73
2023/12/24 06:06:40;;;;;;;1.90;0.90;;;9.80;99.90;;;;;;4994023;28;20087;-74
2023/12/24 06:09:05;;;;;;;9.25;2.00;;;9.80;99.90;;;;;;4993125;28;20094;-74
2023/12/24 06:11:32;;;;;;;3.55;0.73;;;9.80;99.90;;;;;;4991685;28;20480;-73
2023/12/24 06:13:58;;;;;;;4.70;1.02;;;9.80;99.90;;;;;;4982022;28;20556;-74
2023/12/24 06:16:23;;;;;;;3.22;0.88;;;9.80;99.90;;;;;;4995776;28;20077;-74
2023/12/24 06:18:49;;;;;;;8.52;1.55;;;9.80;99.90;;;;;;4984532;28;20050;-74
2023/12/24 06:21:15;;;;;;;2.70;1.35;;;9.80;99.90;;;;;;4999647;28;20038;-74
2023/12/24 06:23:40;;;;;;;4.18;1.27;;;9.80;99.90;;;;;;4994705;28;20093;-74
2023/12/24 06:26:06;;;;;;;6.57;1.00;;;9.80;99.90;;;;;;4982189;28;20050;-74
2023/12/24 06:28:31;;;;;;;5.85;2.33;;;9.80;99.90;;;;;;4983413;28;20567;-73
2023/12/24 06:30:57;;;;;;;4.32;1.00;;;9.80;99.90;;;;;;4986805;28;20046;-74
2023/12/24 06:33:22;;;;;;;2.38;0.95;;;9.80;99.90;;;;;;4998036;28;20049;-74
2023/12/24 06:35:48;;;;;;;4.80;1.00;;;9.80;99.90;;;;;;5003352;28;20045;-74
2023/12/24 06:38:14;;;;;;;5.38;2.72;;;9.80;99.90;;;;;;4983774;28;20041;-74
2023/12/24 06:40:39;;;;;;;9.45;1.48;;;9.90;99.90;;;;;;4995465;28;20081;-74
2023/12/24 06:43:06;;;;;;;13.70;1.92;;;9.90;99.90;;;;;;5032846;28;20046;-74
2023/12/24 06:45:31;;;;;;;4.93;1.85;;;9.90;99.90;;;;;;4993901;28;20038;-73
2023/12/24 06:47:59;;;;;;;3.58;1.77;;;9.90;99.90;;;;;;4983931;28;20058;-74
2023/12/24 06:50:24;;;;;;;2.30;1.58;;;9.90;99.90;;;;;;4984925;28;20439;-74
2023/12/24 06:52:50;;;;;;;8.57;2.50;;;9.90;99.90;;;;;;4996331;28;20081;-73
2023/12/24 06:55:16;;;;;;;3.25;0.82;;;9.90;99.90;;;;;;5002868;28;20392;-74
2023/12/24 06:57:41;;;;;;;5.72;1.50;;;9.90;99.90;;;;;;5002614;28;20139;-74
2023/12/24 07:00:07;;;;;;;6.40;1.80;;;9.90;99.90;;;;;;5021948;28;20409;-74
2023/12/24 07:02:33;;;;;;;6.22;1.48;;;10.00;99.90;;;;;;4982683;28;20046;-74
2023/12/24 07:04:58;;;;;;;3.80;1.17;;;10.00;99.90;;;;;;4983867;28;20070;-74
2023/12/24 07:07:24;;;;;;;6.40;1.55;;;10.00;99.90;;;;;;4983527;28;20481;-74
2023/12/24 07:09:50;;;;;;;6.75;0.98;;;10.00;99.90;;;;;;4982564;28;20084;-73
2023/12/24 07:12:15;;;;;;;12.73;3.28;;;10.00;99.90;;;;;;5034389;28;20604;-74
2023/12/24 07:14:41;;;;;;;1.88;1.08;;;10.00;99.90;;;;;;4984787;28;20038;-74
2023/12/24 07:17:06;;;;;;;2.75;0.95;;;10.00;99.90;;;;;;4998421;28;20049;-74
2023/12/24 07:19:33;;;;;;;9.07;1.40;;;10.10;99.90;;;;;;4983056;28;20054;-73
2023/12/24 07:21:59;;;;;;;4.35;1.60;;;10.10;99.90;;;;;;4981487;28;20039;-74
2023/12/24 07:24:24;;;;;;;6.47;1.60;;;10.10;99.90;;;;;;5000254;28;20092;-74
2023/12/24 07:26:50;;;;;;;7.72;2.70;;;10.10;99.90;;;;;;5015316;28;20046;-74
2023/12/24 07:29:15;;;;;;;4.97;1.13;;;10.10;99.90;;;;;;4981811;28;20048;-73
2023/12/24 07:31:41;;;;;;;8.20;2.38;;;10.10;99.90;;;;;;4984540;28;20072;-74
2023/12/24 07:34:06;;;;;;;4.60;1.10;;;10.10;99.90;;;;;;4982506;28;20049;-74
2023/12/24 07:36:32;;;;;;;3.28;1.20;;;10.10;99.90;;;;;;4983180;28;20046;-73
2023/12/24 07:38:58;;;;;;;4.97;1.65;;;10.20;99.90;;;;;;4982248;28;20073;-73
2023/12/24 07:41:26;;;;;;;5.63;1.40;;;10.10;99.90;;;;;;4982051;28;20374;-75
2023/12/24 07:43:52;;;;;;;4.43;1.40;;;10.10;99.90;;;;;;4979903;28;20054;-74
2023/12/24 07:46:18;;;;;;;6.13;2.10;;;10.20;99.90;;;;;;4966177;28;20050;-74
2023/12/24 07:48:43;;;;;;;9.70;1.90;;;10.20;99.90;;;;;;4986996;28;20531;-74
2023/12/24 07:51:09;;;;;;;6.45;1.20;;;10.20;99.90;;;;;;4990040;28;20250;-74
2023/12/24 07:53:34;;;;;;;2.30;0.85;;;10.20;99.90;;;;;;4993371;28;20484;-73
2023/12/24 07:56:00;;;;;;;5.20;1.90;;;10.20;99.90;;;;;;5033974;28;20122;-74
2023/12/24 07:58:26;;;;;;;4.53;1.50;;;10.20;99.90;;;;;;5000214;28;20050;-74
2023/12/24 08:00:51;;;;;;;4.95;1.40;;;10.20;99.90;;;;;;4980529;28;20050;-76
2023/12/24 08:03:17;;;;;;;4.28;1.73;;;10.20;99.90;;;;;;4983516;28;20089;-75
2023/12/24 08:05:42;;;;;;;5.75;2.63;;;10.20;99.90;;;;;;4996236;28;20053;-75
2023/12/24 08:08:08;;;;;;;3.60;1.92;;;10.20;99.90;;;;;;4980798;28;20061;-76
2023/12/24 08:10:34;;;;;;;6.82;1.50;;;10.20;99.90;;;;;;4998614;28;20119;-74
2023/12/24 08:12:59;;;;;;;5.07;1.50;;;10.20;99.90;;;;;;4997430;28;20720;-75
2023/12/24 08:15:25;;;;;;;2.42;1.13;;;10.30;99.90;;;;;;4992088;28;20126;-74
2023/12/24 08:17:50;;;;;;;4.78;2.90;;;10.30;99.90;;;;;;4980394;28;20046;-75
2023/12/24 08:20:16;;;;;;;6.88;1.40;;;10.30;99.90;;;;;;4993870;28;20048;-75
2023/12/24 08:22:42;;;;;;;6.35;1.60;;;10.30;99.90;;;;;;4992934;28;20046;-75
2023/12/24 08:25:08;;;;;;;5.05;0.93;;;10.30;99.90;;;;;;4980584;28;20517;-75
2023/12/24 08:27:33;;;;;;;8.00;1.75;;;10.30;99.90;;;;;;4979625;28;20054;-76
2023/12/24 08:29:59;;;;;;;5.25;1.38;;;10.30;99.90;;;;;;4981918;28;20042;-75
2023/12/24 08:32:24;;;;;;;7.55;1.63;;;10.30;99.90;;;;;;4981367;28;20038;-75
2023/12/24 08:34:50;;;;;;;4.95;1.67;;;10.30;99.90;;;;;;4983674;28;20494;-75
2023/12/24 08:37:16;;;;;;;3.45;0.93;;;10.30;99.90;;;;;;4965464;28;20039;-75
2023/12/24 08:39:41;;;;;;;3.63;1.33;;;10.40;99.90;;;;;;4964970;28;20054;-75
2023/12/24 08:42:07;;;;;;;7.80;1.60;;;10.40;99.90;;;;;;4980856;28;20508;-76
2023/12/24 08:44:32;;;;;;;2.95;2.38;;;10.40;99.90;;;;;;4981007;28;20404;-75
2023/12/24 08:46:58;;;;;;;7.40;1.58;;;10.40;99.90;;;;;;4980997;28;20077;-75
2023/12/24 08:49:23;;;;;;;3.90;1.80;;;10.40;99.90;;;;;;4980948;28;20042;-76
2023/12/24 08:51:49;;;;;;;5.40;1.27;;;10.50;99.90;;;;;;4986963;28;20388;-75
2023/12/24 08:54:15;;;;;;;7.80;1.55;;;10.40;99.90;;;;;;4970817;28;20105;-75
2023/12/24 08:56:41;;;;;;;3.22;1.42;;;10.50;99.90;;;;;;4981045;28;20089;-75
2023/12/24 08:59:07;;;;;;;4.75;1.83;;;10.50;99.90;;;;;;4979200;28;20492;-75
2023/12/24 09:01:33;;;;;;;13.20;1.23;;;10.50;99.90;;;;;;4980793;28;20078;-74
2023/12/24 09:03:59;;;;;;;3.83;1.00;;;10.50;99.90;;;;;;4978494;28;20104;-75
2023/12/24 09:06:24;;;;;;;14.82;1.58;;;10.50;99.90;;;;;;5000411;28;20561;-75
2023/12/24 09:08:50;;;;;;;12.20;1.40;;;10.60;99.90;;;;;;5023900;28;20497;-76
2023/12/24 09:11:16;;;;;;;2.30;0.75;;;10.60;99.90;;;;;;4983298;28;20084;-75
2023/12/24 09:13:41;;;;;;;2.28;0.93;;;10.60;99.90;;;;;;4992897;28;20570;-75
2023/12/24 09:16:07;;;;;;;4.22;0.80;;;10.60;99.90;;;;;;5013616;28;20050;-76
2023/12/24 09:18:33;;;;;;;4.30;0.90;;;10.70;99.90;;;;;;4985609;28;20042;-74
2023/12/24 09:20:58;;;;;;;2.03;1.30;;;10.70;99.90;;;;;;4999706;28;20046;-75
2023/12/24 09:23:24;;;;;;;4.75;1.33;;;10.70;99.90;;;;;;5020017;28;20039;-75
2023/12/24 09:25:50;;;;;;;3.45;1.65;;;10.70;99.90;;;;;;4990848;28;20477;-75
2023/12/24 09:28:15;;;;;;;2.83;1.17;;;10.70;99.90;;;;;;4983163;28;20041;-74
2023/12/24 09:30:41;;;;;;;3.67;2.40;;;10.70;99.90;;;;;;5015107;28;20065;-74
2023/12/24 09:33:07;;;;;;;4.88;1.38;;;10.80;99.90;;;;;;4979507;28;20041;-76
2023/12/24 09:35:32;;;;;;;7.13;1.80;;;10.80;99.90;;;;;;4992195;28;20050;-74
2023/12/24 09:37:58;;;;;;;3.65;0.98;;;10.80;99.90;;;;;;4984292;28;20038;-74
2023/12/24 09:40:23;;;;;;;10.65;2.03;;;10.80;99.90;;;;;;4980272;28;20420;-75
2023/12/24 09:42:50;;;;;;;3.35;1.10;;;10.80;99.90;;;;;;4984610;28;20068;-75
2023/12/24 09:45:15;;;;;;;3.35;1.25;;;10.80;99.90;;;;;;4989796;28;20054;-75
2023/12/24 09:47:41;;;;;;;8.02;1.20;;;10.80;99.90;;;;;;4984265;28;20405;-75
2023/12/24 09:50:07;;;;;;;4.93;0.98;;;10.80;99.90;;;;;;4983543;28;20568;-75
2023/12/24 09:52:34;;;;;;;6.85;1.45;;;10.80;99.90;;;;;;4967257;28;20054;-75
2023/12/24 09:55:00;;;;;;;8.90;1.52;;;10.90;99.90;;;;;;4961472;28;20268;-75
2023/12/24 09:57:25;;;;;;;6.80;1.58;;;10.80;99.90;;;;;;4964221;28;20042;-75
2023/12/24 09:59:51;;;;;;;7.80;2.67;;;10.90;99.90;;;;;;5008209;28;20046;-74
2023/12/24 10:02:16;;;;;;;5.95;1.70;;;10.90;99.90;;;;;;4980896;28;20568;-75
2023/12/24 10:04:43;;;;;;;2.95;0.95;;;10.90;99.90;;;;;;4976539;28;20082;-75
2023/12/24 10:07:09;;;;;;;4.55;0.82;;;10.90;99.90;;;;;;4949196;28;20046;-75
2023/12/24 10:09:42;;;;;;;7.68;1.25;;;10.90;99.90;;;;;;4977449;28;20056;-75
2023/12/24 10:12:09;;;;;;;2.58;1.17;;;11.00;99.90;;;;;;4979875;28;20034;-74
2023/12/24 10:14:41;;;;;;;5.47;1.67;;;11.00;99.90;;;;;;4986913;28;20042;-74
2023/12/24 10:17:07;;;;;;;3.08;1.38;;;11.00;99.90;;;;;;4987516;28;20038;-75
2023/12/24 10:19:34;;;;;;;3.53;0.80;;;11.00;99.90;;;;;;4994256;28;20034;-74
2023/12/24 10:22:07;;;;;;;5.40;1.42;;;11.00;99.90;;;;;;4967142;28;20462;-75
2023/12/24 10:24:38;;;;;;;;;;;11.10;99.90;;;;;;4963783;28;20042;-73
2023/12/24 10:27:14;;;;;;;5.57;1.13;;;11.10;99.90;;;;;;4982179;28;20466;-74
2023/12/24 10:29:42;;;;;;;7.32;1.25;;;11.10;99.90;;;;;;5001029;28;20057;-74
2023/12/24 10:32:10;;;;;;;4.55;2.05;;;11.10;99.90;;;;;;5000420;28;20090;-74
2023/12/24 10:34:37;;;;;;;4.13;1.30;;;11.10;99.90;;;;;;5018191;28;20041;-76
2023/12/24 10:37:21;;;;;;;1.75;0.70;;;11.00;99.90;;;;;;5001391;28;20136;-74
2023/12/24 10:39:46;;;;;;;2.60;1.00;;;11.10;99.90;;;;;;4998349;28;20046;-75
2023/12/24 10:42:12;;;;;;;5.00;1.15;;;11.10;99.90;;;;;;4975009;28;20057;-75
2023/12/24 10:44:39;;;;;;;2.50;0.88;;;11.10;99.90;;;;;;4955124;28;20101;-74
2023/12/24 10:47:05;;;;;;;6.53;1.25;;;11.10;99.90;;;;;;4978546;28;20081;-75
2023/12/24 10:49:31;;;;;;;3.05;0.85;;;11.10;99.90;;;;;;4983489;28;20100;-75
2023/12/24 10:51:59;;;;;;;5.47;1.50;;;11.10;99.90;;;;;;4967714;28;20141;-74
2023/12/24 10:54:26;;;;;;;6.40;1.13;;;11.10;99.90;;;;;;4972843;28;20046;-74
2023/12/24 10:57:18;;;;;;;5.43;1.65;;;11.10;99.90;;;;;;4978528;28;20133;-75
2023/12/24 11:00:04;;;;;;;6.38;0.98;;;11.10;99.90;;;;;;4981931;28;20117;-74
2023/12/24 11:02:31;;;;;;;3.90;1.58;;;11.10;99.90;;;;;;4979535;28;20074;-75
2023/12/24 11:04:57;;;;;;;3.03;0.93;;;11.00;99.90;;;;;;4979499;28;20055;-75
2023/12/24 11:07:35;;;;;;;11.05;1.75;;;11.10;99.90;;;;;;4981553;28;20042;-75
2023/12/24 11:10:05;;;;;;;3.25;0.88;;;11.10;99.90;;;;;;4980866;28;20524;-74
2023/12/24 11:12:32;;;;;;;6.97;1.67;;;11.10;99.90;;;;;;4964577;28;20137;-74
2023/12/24 11:14:58;;;;;;;4.93;1.35;;;11.10;99.90;;;;;;5002719;28;20049;-74
2023/12/24 11:17:36;;;;;;;2.17;0.77;;;11.10;99.90;;;;;;4969133;28;20102;-74
2023/12/24 11:20:24;;;;;;;2.50;2.28;;;11.10;99.90;;;;;;5013882;28;20600;-73
2023/12/24 11:23:05;;;;;;;6.57;1.35;;;11.10;99.90;;;;;;5012322;28;20145;-75
2023/12/24 11:25:37;;;;;;;2.75;1.15;;;11.10;99.90;;;;;;4980908;28;20268;-74
2023/12/24 11:28:04;;;;;;;13.95;2.33;;;11.10;99.90;;;;;;4976984;28;20042;-74
2023/12/24 11:30:49;;;;;;;6.22;1.58;;;11.20;99.90;;;;;;4984624;28;20038;-74
2023/12/24 11:33:34;;;;;;;6.43;1.77;;;11.20;99.90;;;;;;4981271;28;20042;-73
2023/12/24 11:36:01;;;;;;;2.58;1.73;;;11.20;99.90;;;;;;4979142;28;20054;-75
2023/12/24 11:38:36;;;;;;;5.60;1.40;;;11.20;99.90;;;;;;4970071;28;20034;-74
2023/12/24 11:41:16;;;;;;;8.68;1.60;;;11.20;99.90;;;;;;4972426;28;20145;-75
2023/12/24 11:43:53;;;;;;;6.30;1.40;;;11.20;99.90;;;;;;4992881;28;20555;-74
2023/12/24 11:46:19;;;;;;;3.65;1.23;;;11.30;99.90;;;;;;5006653;28;20092;-74
2023/12/24 11:48:45;;;;;;;8.02;1.30;;;11.30;99.90;;;;;;4987370;28;20042;-75
2023/12/24 11:51:11;;;;;;;6.78;1.17;;;11.30;99.90;;;;;;4964640;28;20389;-74
2023/12/24 11:53:42;;;;;;;7.63;1.90;;;11.30;99.90;;;;;;4985415;28;20034;-74
2023/12/24 11:56:11;;;;;;;5.22;1.60;;;11.30;99.90;;;;;;4990419;28;20114;-74
2023/12/24 11:58:55;;;;;;;5.82;1.83;;;11.30;99.90;;;;;;5026322;28;20037;-74
2023/12/24 12:01:31;;;;;;;8.30;1.90;;;11.30;99.90;;;;;;4982611;28;20058;-74
2023/12/24 12:04:01;;;;;;;2.95;0.95;;;11.40;99.90;;;;;;4979516;28;20059;-74
2023/12/24 12:06:29;;;;;;;4.72;1.17;;;11.30;99.90;;;;;;5008333;28;20054;-74
2023/12/24 12:08:55;;;;;;;2.20;1.10;;;11.30;99.90;;;;;;4993922;28;20035;-74
2023/12/24 12:11:21;;;;;;;5.78;1.38;;;11.30;99.90;;;;;;4986412;28;20046;-76
2023/12/24 12:13:47;;;;;;;12.77;1.27;;;11.30;99.90;;;;;;4974615;28;20392;-75
2023/12/24 12:16:13;;;;;;;5.53;1.52;;;11.30;99.90;;;;;;4963524;28;20049;-82
2023/12/24 12:18:39;;;;;;;6.93;2.65;;;11.30;99.90;;;;;;5025020;28;20056;-72
2023/12/24 12:21:04;;;;;;;3.70;1.30;;;11.30;99.90;;;;;;4978507;28;20034;-72
2023/12/24 12:23:30;;;;;;;5.03;1.20;;;11.30;99.90;;;;;;5010955;28;20052;-72
2023/12/24 12:25:56;;;;;;;4.97;1.60;;;11.40;99.90;;;;;;4974060;28;20574;-74
2023/12/24 12:28:22;;;;;;;2.75;1.45;;;11.40;99.90;;;;;;4986125;28;20054;-73
2023/12/24 12:30:48;;;;;;;3.78;1.00;;;11.40;99.90;;;;;;4979991;28;20042;-73
2023/12/24 12:33:14;;;;;;;1.55;0.85;;;11.40;99.90;;;;;;4977539;28;20088;-73
2023/12/24 12:35:39;;;;;;;17.02;2.00;;;11.40;99.90;;;;;;4973932;28;20072;-72
2023/12/24 12:38:05;;;;;;;3.05;1.08;;;11.40;99.90;;;;;;4998005;28;20480;-73
2023/12/24 12:40:31;;;;;;;2.88;1.88;;;11.40;99.90;;;;;;4978051;28;20046;-73
2023/12/24 12:42:57;;;;;;;3.33;1.35;;;11.40;99.90;;;;;;4995604;28;20084;-74
2023/12/24 12:45:22;;;;;;;5.55;1.60;;;11.50;99.90;;;;;;4971805;28;20417;-72
2023/12/24 12:47:48;;;;;;;5.85;1.27;;;11.40;99.90;;;;;;4990404;28;20526;-72
2023/12/24 12:50:14;;;;;;;2.45;1.10;;;11.50;99.90;;;;;;4978093;28;20549;-73